sensor_id;sensor_type;location;lat;lon;timestamp;P1;durP1;ratioP1;P2;durP2;ratioP2
1467;SDS011;727;48.892;9.544;2023-03-08T00:02:05;11.60;;;7.85;;
1467;SDS011;727;48.892;9.544;2023-03-08T00:04:31;10.65;;;6.93;;
1467;SDS011;727;48.892;9.544;2023-03-08T00:06:58;9.23;;;7.05;;
1467;SDS011;727;48.892;9.544;2023-03-08T00:09:25;11.60;;;8.05;;
1467;SDS011;727;48.892;9.544;2023-03-08T00:11:52;11.82;;;7.93;;
1467;SDS011;727;48.892;9.544;2023-03-08T00:14:19;10.75;;;7.18;;
1467;SDS011;727;48.892;9.544;2023-03-08T00:16:47;10.70;;;7.53;;
1467;SDS011;727;48.892;9.544;2023-03-08T00:19:14;9.30;;;7.60;;
1467;SDS011;727;48.892;9.544;2023-03-08T00:21:42;10.73;;;7.40;;
1467;SDS011;727;48.892;9.544;2023-03-08T00:24:09;12.07;;;7.90;;
1467;SDS011;727;48.892;9.544;2023-03-08T00:26:36;12.35;;;8.57;;
1467;SDS011;727;48.892;9.544;2023-03-08T00:29:03;9.45;;;7.85;;
1467;SDS011;727;48.892;9.544;2023-03-08T00:31:30;11.95;;;8.05;;
1467;SDS011;727;48.892;9.544;2023-03-08T00:33:58;10.38;;;7.78;;
1467;SDS011;727;48.892;9.544;2023-03-08T00:36:25;9.13;;;7.28;;
1467;SDS011;727;48.892;9.544;2023-03-08T00:38:52;11.57;;;8.15;;
1467;SDS011;727;48.892;9.544;2023-03-08T00:41:19;11.75;;;7.57;;
1467;SDS011;727;48.892;9.544;2023-03-08T00:43:45;13.52;;;8.45;;
1467;SDS011;727;48.892;9.544;2023-03-08T00:46:12;10.57;;;7.85;;
1467;SDS011;727;48.892;9.544;2023-03-08T00:48:40;11.85;;;8.50;;
1467;SDS011;727;48.892;9.544;2023-03-08T00:51:08;11.48;;;8.88;;
1467;SDS011;727;48.892;9.544;2023-03-08T00:53:38;10.30;;;8.50;;
1467;SDS011;727;48.892;9.544;2023-03-08T00:56:05;12.80;;;7.95;;
1467;SDS011;727;48.892;9.544;2023-03-08T00:58:32;13.60;;;9.10;;
1467;SDS011;727;48.892;9.544;2023-03-08T01:00:59;11.10;;;8.27;;
1467;SDS011;727;48.892;9.544;2023-03-08T01:03:26;13.35;;;8.52;;
1467;SDS011;727;48.892;9.544;2023-03-08T01:05:53;11.20;;;7.80;;
1467;SDS011;727;48.892;9.544;2023-03-08T01:08:23;9.77;;;7.68;;
1467;SDS011;727;48.892;9.544;2023-03-08T01:10:51;12.32;;;7.45;;
1467;SDS011;727;48.892;9.544;2023-03-08T01:13:22;10.50;;;7.85;;
1467;SDS011;727;48.892;9.544;2023-03-08T01:15:50;13.25;;;9.35;;
1467;SDS011;727;48.892;9.544;2023-03-08T01:18:16;11.10;;;9.50;;
1467;SDS011;727;48.892;9.544;2023-03-08T01:20:43;11.63;;;8.10;;
1467;SDS011;727;48.892;9.544;2023-03-08T01:23:10;13.90;;;8.65;;
1467;SDS011;727;48.892;9.544;2023-03-08T01:25:38;12.65;;;7.78;;
1467;SDS011;727;48.892;9.544;2023-03-08T01:28:05;15.77;;;8.68;;
1467;SDS011;727;48.892;9.544;2023-03-08T01:30:31;10.27;;;7.97;;
1467;SDS011;727;48.892;9.544;2023-03-08T01:32:58;11.70;;;8.05;;
1467;SDS011;727;48.892;9.544;2023-03-08T01:35:25;11.27;;;8.93;;
1467;SDS011;727;48.892;9.544;2023-03-08T01:37:51;13.77;;;8.55;;
1467;SDS011;727;48.892;9.544;2023-03-08T01:40:18;10.43;;;8.52;;
1467;SDS011;727;48.892;9.544;2023-03-08T01:42:46;11.32;;;7.55;;
1467;SDS011;727;48.892;9.544;2023-03-08T01:48:18;17.08;;;9.13;;
1467;SDS011;727;48.892;9.544;2023-03-08T01:50:49;11.50;;;8.60;;
1467;SDS011;727;48.892;9.544;2023-03-08T01:53:16;10.43;;;8.50;;
1467;SDS011;727;48.892;9.544;2023-03-08T01:55:43;12.32;;;8.38;;
1467;SDS011;727;48.892;9.544;2023-03-08T01:58:11;13.20;;;9.23;;
1467;SDS011;727;48.892;9.544;2023-03-08T02:00:38;12.77;;;8.25;;
1467;SDS011;727;48.892;9.544;2023-03-08T02:03:05;13.45;;;9.20;;
1467;SDS011;727;48.892;9.544;2023-03-08T02:05:35;11.68;;;8.95;;
1467;SDS011;727;48.892;9.544;2023-03-08T02:08:03;12.80;;;9.43;;
1467;SDS011;727;48.892;9.544;2023-03-08T02:10:30;11.48;;;9.30;;
1467;SDS011;727;48.892;9.544;2023-03-08T02:12:57;11.73;;;10.52;;
1467;SDS011;727;48.892;9.544;2023-03-08T02:15:25;14.75;;;11.05;;
1467;SDS011;727;48.892;9.544;2023-03-08T02:17:52;10.85;;;8.65;;
1467;SDS011;727;48.892;9.544;2023-03-08T02:20:20;15.07;;;10.25;;
1467;SDS011;727;48.892;9.544;2023-03-08T02:22:53;12.40;;;9.52;;
1467;SDS011;727;48.892;9.544;2023-03-08T02:25:20;14.77;;;9.30;;
1467;SDS011;727;48.892;9.544;2023-03-08T02:27:48;13.50;;;8.63;;
1467;SDS011;727;48.892;9.544;2023-03-08T02:30:21;11.10;;;8.20;;
1467;SDS011;727;48.892;9.544;2023-03-08T02:32:49;12.27;;;8.30;;
1467;SDS011;727;48.892;9.544;2023-03-08T02:35:16;11.25;;;8.40;;
1467;SDS011;727;48.892;9.544;2023-03-08T02:37:43;11.05;;;8.43;;
1467;SDS011;727;48.892;9.544;2023-03-08T02:40:12;10.82;;;8.90;;
1467;SDS011;727;48.892;9.544;2023-03-08T02:42:39;12.55;;;9.27;;
1467;SDS011;727;48.892;9.544;2023-03-08T02:45:06;12.88;;;9.02;;
1467;SDS011;727;48.892;9.544;2023-03-08T02:47:34;10.57;;;9.13;;
1467;SDS011;727;48.892;9.544;2023-03-08T02:50:00;13.50;;;9.70;;
1467;SDS011;727;48.892;9.544;2023-03-08T02:52:27;9.90;;;8.80;;
1467;SDS011;727;48.892;9.544;2023-03-08T02:54:54;8.77;;;7.88;;
1467;SDS011;727;48.892;9.544;2023-03-08T02:57:22;10.20;;;8.68;;
1467;SDS011;727;48.892;9.544;2023-03-08T02:59:49;12.45;;;8.25;;
1467;SDS011;727;48.892;9.544;2023-03-08T03:02:15;12.98;;;9.20;;
1467;SDS011;727;48.892;9.544;2023-03-08T03:04:42;13.60;;;9.57;;
1467;SDS011;727;48.892;9.544;2023-03-08T03:07:09;11.25;;;7.78;;
1467;SDS011;727;48.892;9.544;2023-03-08T03:09:36;12.70;;;8.00;;
1467;SDS011;727;48.892;9.544;2023-03-08T03:12:03;13.90;;;9.25;;
1467;SDS011;727;48.892;9.544;2023-03-08T03:14:31;13.55;;;9.93;;
1467;SDS011;727;48.892;9.544;2023-03-08T03:16:58;11.02;;;8.60;;
1467;SDS011;727;48.892;9.544;2023-03-08T03:19:24;13.95;;;9.23;;
1467;SDS011;727;48.892;9.544;2023-03-08T03:21:51;12.48;;;8.65;;
1467;SDS011;727;48.892;9.544;2023-03-08T03:24:18;13.23;;;9.40;;
1467;SDS011;727;48.892;9.544;2023-03-08T03:26:45;15.05;;;8.07;;
1467;SDS011;727;48.892;9.544;2023-03-08T03:29:11;11.85;;;8.75;;
1467;SDS011;727;48.892;9.544;2023-03-08T03:31:40;11.73;;;8.57;;
1467;SDS011;727;48.892;9.544;2023-03-08T03:34:06;11.00;;;8.38;;
1467;SDS011;727;48.892;9.544;2023-03-08T03:36:33;14.50;;;9.00;;
1467;SDS011;727;48.892;9.544;2023-03-08T03:39:00;14.48;;;10.65;;
1467;SDS011;727;48.892;9.544;2023-03-08T03:41:27;10.25;;;8.82;;
1467;SDS011;727;48.892;9.544;2023-03-08T03:43:53;12.98;;;9.95;;
1467;SDS011;727;48.892;9.544;2023-03-08T03:46:20;13.20;;;8.88;;
1467;SDS011;727;48.892;9.544;2023-03-08T03:48:48;11.88;;;8.55;;
1467;SDS011;727;48.892;9.544;2023-03-08T03:51:16;11.45;;;8.10;;
1467;SDS011;727;48.892;9.544;2023-03-08T03:53:44;13.20;;;9.15;;
1467;SDS011;727;48.892;9.544;2023-03-08T03:56:12;11.88;;;8.02;;
1467;SDS011;727;48.892;9.544;2023-03-08T03:58:39;12.55;;;8.68;;
1467;SDS011;727;48.892;9.544;2023-03-08T04:01:23;15.65;;;8.88;;
1467;SDS011;727;48.892;9.544;2023-03-08T04:03:52;12.77;;;8.20;;
1467;SDS011;727;48.892;9.544;2023-03-08T04:06:21;12.98;;;8.68;;
1467;SDS011;727;48.892;9.544;2023-03-08T04:08:50;12.50;;;8.65;;
1467;SDS011;727;48.892;9.544;2023-03-08T04:11:18;13.80;;;8.38;;
1467;SDS011;727;48.892;9.544;2023-03-08T04:13:46;12.65;;;9.02;;
1467;SDS011;727;48.892;9.544;2023-03-08T04:16:13;11.52;;;9.27;;
1467;SDS011;727;48.892;9.544;2023-03-08T04:18:43;15.00;;;9.38;;
1467;SDS011;727;48.892;9.544;2023-03-08T04:21:10;14.63;;;8.40;;
1467;SDS011;727;48.892;9.544;2023-03-08T04:23:37;13.85;;;8.30;;
1467;SDS011;727;48.892;9.544;2023-03-08T04:26:05;14.90;;;8.88;;
1467;SDS011;727;48.892;9.544;2023-03-08T04:28:32;11.82;;;9.10;;
1467;SDS011;727;48.892;9.544;2023-03-08T04:31:00;13.10;;;8.88;;
1467;SDS011;727;48.892;9.544;2023-03-08T04:33:36;15.80;;;9.35;;
1467;SDS011;727;48.892;9.544;2023-03-08T04:36:05;18.23;;;10.60;;
1467;SDS011;727;48.892;9.544;2023-03-08T04:38:32;12.65;;;8.00;;
1467;SDS011;727;48.892;9.544;2023-03-08T04:41:00;15.93;;;8.82;;
1467;SDS011;727;48.892;9.544;2023-03-08T04:43:29;12.75;;;9.05;;
1467;SDS011;727;48.892;9.544;2023-03-08T04:45:56;13.20;;;10.02;;
1467;SDS011;727;48.892;9.544;2023-03-08T04:48:25;12.50;;;9.00;;
1467;SDS011;727;48.892;9.544;2023-03-08T04:50:53;17.05;;;8.68;;
1467;SDS011;727;48.892;9.544;2023-03-08T04:53:22;19.50;;;9.70;;
1467;SDS011;727;48.892;9.544;2023-03-08T04:55:50;13.85;;;8.63;;
1467;SDS011;727;48.892;9.544;2023-03-08T04:58:18;15.57;;;10.23;;
1467;SDS011;727;48.892;9.544;2023-03-08T05:00:46;17.58;;;10.07;;
1467;SDS011;727;48.892;9.544;2023-03-08T05:03:13;14.98;;;9.60;;
1467;SDS011;727;48.892;9.544;2023-03-08T05:05:43;13.95;;;9.27;;
1467;SDS011;727;48.892;9.544;2023-03-08T05:08:16;14.85;;;9.27;;
1467;SDS011;727;48.892;9.544;2023-03-08T05:10:48;17.90;;;9.02;;
1467;SDS011;727;48.892;9.544;2023-03-08T05:13:18;12.00;;;8.73;;
1467;SDS011;727;48.892;9.544;2023-03-08T05:15:45;12.60;;;9.35;;
1467;SDS011;727;48.892;9.544;2023-03-08T05:18:12;14.23;;;9.50;;
1467;SDS011;727;48.892;9.544;2023-03-08T05:20:41;12.88;;;8.82;;
1467;SDS011;727;48.892;9.544;2023-03-08T05:23:07;14.13;;;9.55;;
1467;SDS011;727;48.892;9.544;2023-03-08T05:25:39;14.77;;;8.95;;
1467;SDS011;727;48.892;9.544;2023-03-08T05:28:08;12.30;;;8.70;;
1467;SDS011;727;48.892;9.544;2023-03-08T05:30:39;13.07;;;9.90;;
1467;SDS011;727;48.892;9.544;2023-03-08T05:33:06;12.07;;;9.30;;
1467;SDS011;727;48.892;9.544;2023-03-08T05:35:33;11.80;;;8.43;;
1467;SDS011;727;48.892;9.544;2023-03-08T05:38:00;15.68;;;8.90;;
1467;SDS011;727;48.892;9.544;2023-03-08T05:40:26;13.60;;;8.75;;
1467;SDS011;727;48.892;9.544;2023-03-08T05:42:53;11.52;;;9.73;;
1467;SDS011;727;48.892;9.544;2023-03-08T05:45:21;10.45;;;8.30;;
1467;SDS011;727;48.892;9.544;2023-03-08T05:47:48;12.55;;;8.80;;
1467;SDS011;727;48.892;9.544;2023-03-08T05:50:15;12.35;;;9.25;;
1467;SDS011;727;48.892;9.544;2023-03-08T05:52:42;15.32;;;8.93;;
1467;SDS011;727;48.892;9.544;2023-03-08T05:55:10;15.40;;;9.60;;
1467;SDS011;727;48.892;9.544;2023-03-08T05:57:37;15.60;;;11.32;;
1467;SDS011;727;48.892;9.544;2023-03-08T06:00:05;30.13;;;16.45;;
1467;SDS011;727;48.892;9.544;2023-03-08T06:02:34;12.30;;;9.35;;
1467;SDS011;727;48.892;9.544;2023-03-08T06:05:01;14.70;;;9.13;;
1467;SDS011;727;48.892;9.544;2023-03-08T06:07:29;12.10;;;8.75;;
1467;SDS011;727;48.892;9.544;2023-03-08T06:09:55;11.45;;;8.18;;
1467;SDS011;727;48.892;9.544;2023-03-08T06:12:22;17.08;;;9.73;;
1467;SDS011;727;48.892;9.544;2023-03-08T06:14:49;24.80;;;15.40;;
1467;SDS011;727;48.892;9.544;2023-03-08T06:17:15;18.35;;;12.73;;
1467;SDS011;727;48.892;9.544;2023-03-08T06:19:44;14.65;;;12.10;;
1467;SDS011;727;48.892;9.544;2023-03-08T06:22:11;16.02;;;10.88;;
1467;SDS011;727;48.892;9.544;2023-03-08T06:24:40;15.82;;;11.60;;
1467;SDS011;727;48.892;9.544;2023-03-08T06:27:06;14.27;;;11.25;;
1467;SDS011;727;48.892;9.544;2023-03-08T06:29:33;12.82;;;9.77;;
1467;SDS011;727;48.892;9.544;2023-03-08T06:32:00;13.63;;;9.90;;
1467;SDS011;727;48.892;9.544;2023-03-08T06:34:27;15.43;;;11.40;;
1467;SDS011;727;48.892;9.544;2023-03-08T06:36:55;19.52;;;11.18;;
1467;SDS011;727;48.892;9.544;2023-03-08T06:39:23;14.20;;;9.85;;
1467;SDS011;727;48.892;9.544;2023-03-08T06:41:51;18.25;;;8.75;;
1467;SDS011;727;48.892;9.544;2023-03-08T06:44:17;22.42;;;12.90;;
1467;SDS011;727;48.892;9.544;2023-03-08T06:46:44;20.65;;;15.23;;
1467;SDS011;727;48.892;9.544;2023-03-08T06:49:12;18.23;;;13.25;;
1467;SDS011;727;48.892;9.544;2023-03-08T06:51:39;23.65;;;16.45;;
1467;SDS011;727;48.892;9.544;2023-03-08T06:54:07;25.73;;;15.30;;
1467;SDS011;727;48.892;9.544;2023-03-08T06:56:34;18.73;;;11.23;;
1467;SDS011;727;48.892;9.544;2023-03-08T06:59:00;22.95;;;12.25;;
1467;SDS011;727;48.892;9.544;2023-03-08T07:01:27;12.55;;;9.88;;
1467;SDS011;727;48.892;9.544;2023-03-08T07:03:54;12.55;;;9.88;;
1467;SDS011;727;48.892;9.544;2023-03-08T07:06:21;12.63;;;8.95;;
1467;SDS011;727;48.892;9.544;2023-03-08T07:08:47;10.32;;;8.68;;
1467;SDS011;727;48.892;9.544;2023-03-08T07:11:15;15.43;;;10.25;;
1467;SDS011;727;48.892;9.544;2023-03-08T07:13:42;16.33;;;9.88;;
1467;SDS011;727;48.892;9.544;2023-03-08T07:16:09;17.52;;;11.05;;
1467;SDS011;727;48.892;9.544;2023-03-08T07:18:37;12.23;;;9.82;;
1467;SDS011;727;48.892;9.544;2023-03-08T07:21:05;16.88;;;10.55;;
1467;SDS011;727;48.892;9.544;2023-03-08T07:23:31;17.88;;;13.85;;
1467;SDS011;727;48.892;9.544;2023-03-08T07:25:58;15.57;;;11.13;;
1467;SDS011;727;48.892;9.544;2023-03-08T07:28:30;13.02;;;9.18;;
1467;SDS011;727;48.892;9.544;2023-03-08T07:30:57;15.73;;;11.32;;
1467;SDS011;727;48.892;9.544;2023-03-08T07:33:24;17.77;;;11.63;;
1467;SDS011;727;48.892;9.544;2023-03-08T07:35:51;13.05;;;10.43;;
1467;SDS011;727;48.892;9.544;2023-03-08T07:38:18;14.20;;;10.77;;
1467;SDS011;727;48.892;9.544;2023-03-08T07:40:44;17.88;;;11.27;;
1467;SDS011;727;48.892;9.544;2023-03-08T07:43:11;16.85;;;12.70;;
1467;SDS011;727;48.892;9.544;2023-03-08T07:45:39;16.50;;;11.98;;
1467;SDS011;727;48.892;9.544;2023-03-08T07:48:06;14.10;;;11.70;;
1467;SDS011;727;48.892;9.544;2023-03-08T07:50:33;18.42;;;11.95;;
1467;SDS011;727;48.892;9.544;2023-03-08T07:53:00;18.35;;;12.98;;
1467;SDS011;727;48.892;9.544;2023-03-08T07:55:28;21.10;;;15.13;;
1467;SDS011;727;48.892;9.544;2023-03-08T07:57:55;21.13;;;13.15;;
1467;SDS011;727;48.892;9.544;2023-03-08T08:00:22;19.30;;;13.30;;
1467;SDS011;727;48.892;9.544;2023-03-08T08:02:50;23.05;;;15.20;;
1467;SDS011;727;48.892;9.544;2023-03-08T08:05:18;17.92;;;14.13;;
1467;SDS011;727;48.892;9.544;2023-03-08T08:07:45;17.55;;;13.38;;
1467;SDS011;727;48.892;9.544;2023-03-08T08:10:12;18.67;;;13.73;;
1467;SDS011;727;48.892;9.544;2023-03-08T08:12:40;21.65;;;16.10;;
1467;SDS011;727;48.892;9.544;2023-03-08T08:15:07;17.85;;;13.15;;
1467;SDS011;727;48.892;9.544;2023-03-08T08:17:34;25.23;;;16.30;;
1467;SDS011;727;48.892;9.544;2023-03-08T08:20:03;23.33;;;14.60;;
1467;SDS011;727;48.892;9.544;2023-03-08T08:22:33;25.38;;;16.13;;
1467;SDS011;727;48.892;9.544;2023-03-08T08:25:00;24.25;;;16.60;;
1467;SDS011;727;48.892;9.544;2023-03-08T08:27:28;24.23;;;18.08;;
1467;SDS011;727;48.892;9.544;2023-03-08T08:29:54;30.17;;;18.77;;
1467;SDS011;727;48.892;9.544;2023-03-08T08:32:24;22.25;;;17.30;;
1467;SDS011;727;48.892;9.544;2023-03-08T08:34:51;21.00;;;16.88;;
1467;SDS011;727;48.892;9.544;2023-03-08T08:37:19;21.10;;;15.68;;
1467;SDS011;727;48.892;9.544;2023-03-08T08:39:46;26.55;;;18.83;;
1467;SDS011;727;48.892;9.544;2023-03-08T08:42:13;24.33;;;19.48;;
1467;SDS011;727;48.892;9.544;2023-03-08T08:44:40;29.83;;;20.75;;
1467;SDS011;727;48.892;9.544;2023-03-08T08:47:07;27.08;;;19.95;;
1467;SDS011;727;48.892;9.544;2023-03-08T08:49:33;24.23;;;17.30;;
1467;SDS011;727;48.892;9.544;2023-03-08T08:52:00;33.30;;;23.25;;
1467;SDS011;727;48.892;9.544;2023-03-08T08:54:28;28.58;;;18.60;;
1467;SDS011;727;48.892;9.544;2023-03-08T08:56:56;27.80;;;16.38;;
1467;SDS011;727;48.892;9.544;2023-03-08T08:59:23;29.13;;;18.90;;
1467;SDS011;727;48.892;9.544;2023-03-08T09:01:50;27.25;;;18.55;;
1467;SDS011;727;48.892;9.544;2023-03-08T09:04:16;25.98;;;19.73;;
1467;SDS011;727;48.892;9.544;2023-03-08T09:06:44;25.85;;;17.10;;
1467;SDS011;727;48.892;9.544;2023-03-08T09:09:11;34.05;;;18.85;;
1467;SDS011;727;48.892;9.544;2023-03-08T09:11:39;29.85;;;18.13;;
1467;SDS011;727;48.892;9.544;2023-03-08T09:14:06;24.88;;;16.95;;
1467;SDS011;727;48.892;9.544;2023-03-08T09:16:33;27.00;;;16.13;;
1467;SDS011;727;48.892;9.544;2023-03-08T09:19:00;24.75;;;18.45;;
1467;SDS011;727;48.892;9.544;2023-03-08T09:21:29;25.48;;;18.00;;
1467;SDS011;727;48.892;9.544;2023-03-08T09:23:57;24.45;;;16.08;;
1467;SDS011;727;48.892;9.544;2023-03-08T09:26:25;27.35;;;19.10;;
1467;SDS011;727;48.892;9.544;2023-03-08T09:28:54;26.83;;;17.92;;
1467;SDS011;727;48.892;9.544;2023-03-08T09:31:23;25.08;;;17.52;;
1467;SDS011;727;48.892;9.544;2023-03-08T09:33:50;28.65;;;21.88;;
1467;SDS011;727;48.892;9.544;2023-03-08T09:36:17;29.45;;;20.02;;
1467;SDS011;727;48.892;9.544;2023-03-08T09:38:45;27.00;;;17.85;;
1467;SDS011;727;48.892;9.544;2023-03-08T09:41:18;28.48;;;18.77;;
1467;SDS011;727;48.892;9.544;2023-03-08T09:43:57;26.52;;;17.23;;
1467;SDS011;727;48.892;9.544;2023-03-08T09:46:35;29.13;;;18.02;;
1467;SDS011;727;48.892;9.544;2023-03-08T09:49:05;31.73;;;19.83;;
1467;SDS011;727;48.892;9.544;2023-03-08T09:51:39;24.45;;;16.67;;
1467;SDS011;727;48.892;9.544;2023-03-08T09:54:10;25.92;;;17.70;;
1467;SDS011;727;48.892;9.544;2023-03-08T09:56:41;27.27;;;18.35;;
1467;SDS011;727;48.892;9.544;2023-03-08T09:59:13;29.30;;;19.77;;
1467;SDS011;727;48.892;9.544;2023-03-08T10:01:46;25.85;;;17.88;;
1467;SDS011;727;48.892;9.544;2023-03-08T10:07:16;28.17;;;18.00;;
1467;SDS011;727;48.892;9.544;2023-03-08T10:09:51;25.60;;;17.17;;
1467;SDS011;727;48.892;9.544;2023-03-08T10:12:28;26.33;;;17.35;;
1467;SDS011;727;48.892;9.544;2023-03-08T10:15:04;28.45;;;18.25;;
1467;SDS011;727;48.892;9.544;2023-03-08T10:17:38;24.23;;;17.15;;
1467;SDS011;727;48.892;9.544;2023-03-08T10:20:13;24.80;;;18.17;;
1467;SDS011;727;48.892;9.544;2023-03-08T10:22:45;25.35;;;18.15;;
1467;SDS011;727;48.892;9.544;2023-03-08T10:25:19;22.92;;;17.55;;
1467;SDS011;727;48.892;9.544;2023-03-08T10:27:50;28.67;;;17.80;;
1467;SDS011;727;48.892;9.544;2023-03-08T10:30:20;21.85;;;15.55;;
1467;SDS011;727;48.892;9.544;2023-03-08T10:32:50;25.00;;;15.82;;
1467;SDS011;727;48.892;9.544;2023-03-08T10:35:29;24.90;;;17.48;;
1467;SDS011;727;48.892;9.544;2023-03-08T10:37:57;27.75;;;17.35;;
1467;SDS011;727;48.892;9.544;2023-03-08T10:40:24;24.58;;;19.00;;
1467;SDS011;727;48.892;9.544;2023-03-08T10:42:52;21.67;;;15.95;;
1467;SDS011;727;48.892;9.544;2023-03-08T10:45:26;20.27;;;14.63;;
1467;SDS011;727;48.892;9.544;2023-03-08T10:47:55;26.38;;;16.15;;
1467;SDS011;727;48.892;9.544;2023-03-08T10:50:23;24.65;;;17.58;;
1467;SDS011;727;48.892;9.544;2023-03-08T10:52:52;26.73;;;19.50;;
1467;SDS011;727;48.892;9.544;2023-03-08T10:55:20;23.58;;;16.83;;
1467;SDS011;727;48.892;9.544;2023-03-08T10:57:50;22.70;;;15.98;;
1467;SDS011;727;48.892;9.544;2023-03-08T11:00:31;25.80;;;17.10;;
1467;SDS011;727;48.892;9.544;2023-03-08T11:03:12;23.92;;;16.75;;
1467;SDS011;727;48.892;9.544;2023-03-08T11:05:49;24.50;;;17.65;;
1467;SDS011;727;48.892;9.544;2023-03-08T11:08:18;24.88;;;18.55;;
1467;SDS011;727;48.892;9.544;2023-03-08T11:10:46;26.20;;;17.50;;
1467;SDS011;727;48.892;9.544;2023-03-08T11:13:19;22.10;;;16.73;;
1467;SDS011;727;48.892;9.544;2023-03-08T11:18:58;18.42;;;14.35;;
1467;SDS011;727;48.892;9.544;2023-03-08T11:21:31;22.08;;;13.75;;
1467;SDS011;727;48.892;9.544;2023-03-08T11:24:07;23.20;;;13.95;;
1467;SDS011;727;48.892;9.544;2023-03-08T11:26:44;16.70;;;13.02;;
1467;SDS011;727;48.892;9.544;2023-03-08T11:29:25;18.70;;;14.77;;
1467;SDS011;727;48.892;9.544;2023-03-08T11:32:01;16.05;;;13.75;;
1467;SDS011;727;48.892;9.544;2023-03-08T11:34:39;18.48;;;13.30;;
1467;SDS011;727;48.892;9.544;2023-03-08T11:37:14;16.40;;;10.98;;
1467;SDS011;727;48.892;9.544;2023-03-08T11:39:51;16.25;;;13.88;;
1467;SDS011;727;48.892;9.544;2023-03-08T11:42:27;14.13;;;12.73;;
1467;SDS011;727;48.892;9.544;2023-03-08T11:45:17;15.77;;;12.25;;
1467;SDS011;727;48.892;9.544;2023-03-08T11:47:59;15.43;;;11.48;;
1467;SDS011;727;48.892;9.544;2023-03-08T11:50:54;12.38;;;10.95;;
1467;SDS011;727;48.892;9.544;2023-03-08T11:53:33;15.27;;;9.43;;
1467;SDS011;727;48.892;9.544;2023-03-08T11:59:14;6.25;;;4.82;;
1467;SDS011;727;48.892;9.544;2023-03-08T12:01:56;6.05;;;3.80;;
1467;SDS011;727;48.892;9.544;2023-03-08T12:04:30;3.60;;;3.30;;
1467;SDS011;727;48.892;9.544;2023-03-08T12:07:05;3.60;;;2.50;;
1467;SDS011;727;48.892;9.544;2023-03-08T12:09:36;3.28;;;2.45;;
1467;SDS011;727;48.892;9.544;2023-03-08T12:12:07;2.72;;;2.42;;
1467;SDS011;727;48.892;9.544;2023-03-08T12:14:42;3.05;;;2.67;;
1467;SDS011;727;48.892;9.544;2023-03-08T12:17:15;2.80;;;2.30;;
1467;SDS011;727;48.892;9.544;2023-03-08T12:19:46;2.75;;;2.05;;
1467;SDS011;727;48.892;9.544;2023-03-08T12:22:30;2.15;;;1.92;;
1467;SDS011;727;48.892;9.544;2023-03-08T12:25:08;2.58;;;1.52;;
1467;SDS011;727;48.892;9.544;2023-03-08T12:27:43;2.00;;;1.90;;
1467;SDS011;727;48.892;9.544;2023-03-08T12:30:18;3.72;;;1.60;;
1467;SDS011;727;48.892;9.544;2023-03-08T12:32:51;4.25;;;3.17;;
1467;SDS011;727;48.892;9.544;2023-03-08T12:35:25;3.72;;;2.75;;
1467;SDS011;727;48.892;9.544;2023-03-08T12:37:54;1.73;;;1.63;;
1467;SDS011;727;48.892;9.544;2023-03-08T12:43:09;2.33;;;2.13;;
1467;SDS011;727;48.892;9.544;2023-03-08T12:45:37;2.42;;;1.70;;
1467;SDS011;727;48.892;9.544;2023-03-08T12:48:13;7.45;;;1.67;;
1467;SDS011;727;48.892;9.544;2023-03-08T12:50:55;1.60;;;1.50;;
1467;SDS011;727;48.892;9.544;2023-03-08T12:53:27;2.33;;;1.70;;
1467;SDS011;727;48.892;9.544;2023-03-08T12:56:00;1.67;;;1.48;;
1467;SDS011;727;48.892;9.544;2023-03-08T12:58:29;5.03;;;1.20;;
1467;SDS011;727;48.892;9.544;2023-03-08T13:00:59;2.15;;;1.40;;
1467;SDS011;727;48.892;9.544;2023-03-08T13:03:28;1.88;;;1.77;;
1467;SDS011;727;48.892;9.544;2023-03-08T13:06:14;1.20;;;1.10;;
1467;SDS011;727;48.892;9.544;2023-03-08T13:08:58;5.63;;;1.47;;
1467;SDS011;727;48.892;9.544;2023-03-08T13:11:36;2.60;;;0.95;;
1467;SDS011;727;48.892;9.544;2023-03-08T13:16:48;1.50;;;1.40;;
1467;SDS011;727;48.892;9.544;2023-03-08T13:19:16;2.30;;;1.42;;
1467;SDS011;727;48.892;9.544;2023-03-08T13:21:48;2.88;;;1.52;;
1467;SDS011;727;48.892;9.544;2023-03-08T13:24:29;2.38;;;1.45;;
1467;SDS011;727;48.892;9.544;2023-03-08T13:27:09;1.70;;;1.50;;
1467;SDS011;727;48.892;9.544;2023-03-08T13:29:50;2.30;;;1.67;;
1467;SDS011;727;48.892;9.544;2023-03-08T13:32:19;2.20;;;1.57;;
1467;SDS011;727;48.892;9.544;2023-03-08T13:34:50;2.00;;;1.90;;
1467;SDS011;727;48.892;9.544;2023-03-08T13:37:26;1.50;;;1.40;;
1467;SDS011;727;48.892;9.544;2023-03-08T13:39:54;1.57;;;1.47;;
1467;SDS011;727;48.892;9.544;2023-03-08T13:42:23;2.60;;;2.33;;
1467;SDS011;727;48.892;9.544;2023-03-08T13:44:50;2.37;;;2.10;;
1467;SDS011;727;48.892;9.544;2023-03-08T13:47:21;2.00;;;1.80;;
1467;SDS011;727;48.892;9.544;2023-03-08T13:49:49;1.00;;;1.00;;
1467;SDS011;727;48.892;9.544;2023-03-08T13:52:19;1.60;;;1.50;;
1467;SDS011;727;48.892;9.544;2023-03-08T13:54:49;2.50;;;1.97;;
1467;SDS011;727;48.892;9.544;2023-03-08T13:57:19;2.27;;;1.30;;
1467;SDS011;727;48.892;9.544;2023-03-08T13:59:48;1.53;;;1.43;;
1467;SDS011;727;48.892;9.544;2023-03-08T14:02:17;1.03;;;0.93;;
1467;SDS011;727;48.892;9.544;2023-03-08T14:04:46;1.40;;;1.30;;
1467;SDS011;727;48.892;9.544;2023-03-08T14:07:17;1.63;;;1.00;;
1467;SDS011;727;48.892;9.544;2023-03-08T14:09:48;3.03;;;1.20;;
1467;SDS011;727;48.892;9.544;2023-03-08T14:12:16;0.97;;;0.97;;
1467;SDS011;727;48.892;9.544;2023-03-08T14:14:45;1.47;;;0.93;;
1467;SDS011;727;48.892;9.544;2023-03-08T14:17:17;3.03;;;1.00;;
1467;SDS011;727;48.892;9.544;2023-03-08T14:19:50;2.60;;;1.10;;
1467;SDS011;727;48.892;9.544;2023-03-08T14:22:22;1.20;;;0.90;;
1467;SDS011;727;48.892;9.544;2023-03-08T14:24:52;0.97;;;0.87;;
1467;SDS011;727;48.892;9.544;2023-03-08T14:27:30;1.53;;;1.20;;
1467;SDS011;727;48.892;9.544;2023-03-08T14:30:01;1.53;;;1.43;;
1467;SDS011;727;48.892;9.544;2023-03-08T14:32:39;1.67;;;1.37;;
1467;SDS011;727;48.892;9.544;2023-03-08T14:35:13;1.50;;;1.40;;
1467;SDS011;727;48.892;9.544;2023-03-08T14:37:47;2.83;;;1.40;;
1467;SDS011;727;48.892;9.544;2023-03-08T14:40:22;1.73;;;0.90;;
1467;SDS011;727;48.892;9.544;2023-03-08T14:42:52;1.57;;;1.20;;
1467;SDS011;727;48.892;9.544;2023-03-08T14:45:21;1.80;;;1.07;;
1467;SDS011;727;48.892;9.544;2023-03-08T14:47:50;3.40;;;2.50;;
1467;SDS011;727;48.892;9.544;2023-03-08T14:50:21;1.50;;;1.40;;
1467;SDS011;727;48.892;9.544;2023-03-08T14:52:51;5.07;;;2.73;;
1467;SDS011;727;48.892;9.544;2023-03-08T14:55:22;2.50;;;2.20;;
1467;SDS011;727;48.892;9.544;2023-03-08T14:57:52;1.20;;;1.10;;
1467;SDS011;727;48.892;9.544;2023-03-08T15:00:21;2.17;;;1.77;;
1467;SDS011;727;48.892;9.544;2023-03-08T15:02:51;3.20;;;2.03;;
1467;SDS011;727;48.892;9.544;2023-03-08T15:05:18;2.60;;;0.90;;
1467;SDS011;727;48.892;9.544;2023-03-08T15:07:48;1.23;;;1.13;;
1467;SDS011;727;48.892;9.544;2023-03-08T15:10:22;1.13;;;1.03;;
1467;SDS011;727;48.892;9.544;2023-03-08T15:12:53;2.07;;;1.40;;
1467;SDS011;727;48.892;9.544;2023-03-08T15:15:20;1.97;;;1.40;;
1467;SDS011;727;48.892;9.544;2023-03-08T15:17:47;1.33;;;1.17;;
1467;SDS011;727;48.892;9.544;2023-03-08T15:20:14;1.50;;;1.40;;
1467;SDS011;727;48.892;9.544;2023-03-08T15:22:44;1.90;;;1.80;;
1467;SDS011;727;48.892;9.544;2023-03-08T15:25:15;2.67;;;1.47;;
1467;SDS011;727;48.892;9.544;2023-03-08T15:27:45;2.20;;;1.90;;
1467;SDS011;727;48.892;9.544;2023-03-08T15:30:14;1.90;;;1.30;;
1467;SDS011;727;48.892;9.544;2023-03-08T15:32:41;1.60;;;1.40;;
1467;SDS011;727;48.892;9.544;2023-03-08T15:35:08;1.40;;;1.13;;
1467;SDS011;727;48.892;9.544;2023-03-08T15:37:35;3.43;;;1.40;;
1467;SDS011;727;48.892;9.544;2023-03-08T15:40:02;2.67;;;1.60;;
1467;SDS011;727;48.892;9.544;2023-03-08T15:42:32;2.63;;;1.27;;
1467;SDS011;727;48.892;9.544;2023-03-08T15:45:00;2.30;;;1.30;;
1467;SDS011;727;48.892;9.544;2023-03-08T15:47:27;2.63;;;2.03;;